^^
WesterhopeWX Station Historical Data
 
Daily Summary for August 24, 2019 Units:  Metric    English   Both
Daily Weekly Monthly Yearly Custom
  Current: High: Low: Average:
Temperature: 25.6 °C 25.6 °C 15.0 °C 18.6 °C
Dew Point: 13.1 °C 16.9 °C 12.1 °C 14.3 °C
Humidity: 46% 90% 46% 78%
Wind Speed: 0.0km/h 9.7km/h 0.0km/h 0.7km/h
Wind Gust: 11.3km/h 12.9km/h - -
WindCalm - - SW
Pressure: 1015.8 hPa 1017.8 hPa 1015.8 hPa -
Precipitation: 0.5 mm      
Historical Graphs
 
 
Tabular Data for August 24, 2019
Time Temperature Dew Point Pressure Wind Wind Speed Wind Gust Humidity Rainfall Rate (Hourly) solar
00:00 17.5 °C 14.8 °C 1017.8 hPa Calm     84% 0.0 mm 0.00 W/m2
00:05 17.5 °C 14.8 °C 1017.8 hPa Calm     84% 0.0 mm 0.00 W/m2
00:10 17.5 °C 14.8 °C 1017.8 hPa Calm     84% 0.0 mm 0.00 W/m2
00:15 17.5 °C 14.8 °C 1017.8 hPa Calm     84% 0.0 mm 0.00 W/m2
00:20 17.4 °C 14.7 °C 1017.8 hPa Calm     84% 0.0 mm 0.00 W/m2
00:25 17.4 °C 14.7 °C 1017.8 hPa Calm     84% 0.0 mm 0.00 W/m2
00:30 17.3 °C 14.6 °C 1017.8 hPa Calm     84% 0.0 mm 0.00 W/m2
00:35 17.3 °C 14.6 °C 1017.8 hPa Calm     84% 0.0 mm 0.00 W/m2
00:40 17.3 °C 14.6 °C 1017.8 hPa Calm     84% 0.0 mm 0.00 W/m2
00:45 17.2 °C 14.5 °C 1017.8 hPa Calm     84% 0.0 mm 0.00 W/m2
00:50 17.1 °C 14.4 °C 1017.8 hPa Calm     84% 0.0 mm 0.00 W/m2
00:55 17.1 °C 14.4 °C 1017.8 hPa Calm     84% 0.0 mm 0.00 W/m2
01:00 16.9 °C 14.4 °C 1017.8 hPa Calm     85% 0.0 mm 0.00 W/m2
01:05 16.9 °C 14.4 °C 1017.8 hPa Calm     85% 0.0 mm 0.00 W/m2
01:10 16.8 °C 14.3 °C 1017.8 hPa Calm     85% 0.3 mm 0.00 W/m2
01:15 16.7 °C 14.2 °C 1017.5 hPa Calm     85% 0.3 mm 0.00 W/m2
01:20 16.6 °C 14.1 °C 1017.5 hPa Calm     85% 0.3 mm 0.00 W/m2
01:25 16.5 °C 14.1 °C 1017.8 hPa Calm     86% 0.3 mm 0.00 W/m2
01:30 16.5 °C 14.1 °C 1017.8 hPa Calm     86% 0.3 mm 0.00 W/m2
01:35 16.4 °C 14.1 °C 1017.8 hPa Calm     86% 0.3 mm 0.00 W/m2
01:40 16.4 °C 14.1 °C 1017.5 hPa Calm     86% 0.3 mm 0.00 W/m2
01:45 16.3 °C 14.1 °C 1017.5 hPa Calm     87% 0.3 mm 0.00 W/m2
01:50 16.3 °C 14.1 °C 1017.5 hPa Calm     87% 0.3 mm 0.00 W/m2
01:55 16.4 °C 14.2 °C 1017.5 hPa Calm     87% 0.3 mm 0.00 W/m2
02:00 16.3 °C 14.1 °C 1017.5 hPa Calm     87% 0.3 mm 0.00 W/m2
02:05 16.3 °C 14.1 °C 1017.2 hPa Calm     87% 0.3 mm 0.00 W/m2
02:10 16.3 °C 14.1 °C 1017.5 hPa Calm     87% 0.0 mm 0.00 W/m2
02:15 16.2 °C 14.0 °C 1017.5 hPa Calm     87% 0.0 mm 0.00 W/m2
02:20 16.2 °C 14.0 °C 1017.2 hPa Calm     87% 0.0 mm 0.00 W/m2
02:25 16.1 °C 14.1 °C 1017.2 hPa Calm     88% 0.0 mm 0.00 W/m2
02:30 16.1 °C 14.1 °C 1017.2 hPa Calm     88% 0.0 mm 0.00 W/m2
02:35 16.0 °C 14.0 °C 1017.2 hPa Calm     88% 0.0 mm 0.00 W/m2
02:40 16.0 °C 14.0 °C 1017.2 hPa Calm     88% 0.0 mm 0.00 W/m2
02:45 15.9 °C 13.9 °C 1017.2 hPa Calm     88% 0.0 mm 0.00 W/m2
02:50 16.0 °C 14.0 °C 1017.2 hPa Calm     88% 0.0 mm 0.00 W/m2
02:55 15.9 °C 13.9 °C 1017.5 hPa Calm     88% 0.0 mm 0.00 W/m2
03:00 15.9 °C 13.9 °C 1017.2 hPa Calm     88% 0.0 mm 0.00 W/m2
03:05 15.9 °C 13.9 °C 1017.2 hPa Calm     88% 0.0 mm 0.00 W/m2
03:10 15.8 °C 13.8 °C 1017.2 hPa Calm     88% 0.0 mm 0.00 W/m2
03:15 15.8 °C 13.8 °C 1017.2 hPa Calm     88% 0.0 mm 0.00 W/m2
03:20 15.7 °C 13.7 °C 1017.2 hPa Calm     88% 0.0 mm 0.00 W/m2
03:25 15.7 °C 13.7 °C 1017.2 hPa Calm     88% 0.0 mm 0.00 W/m2
03:30 15.6 °C 13.6 °C 1017.5 hPa Calm     88% 0.0 mm 0.00 W/m2
03:35 15.5 °C 13.5 °C 1017.5 hPa Calm     88% 0.0 mm 0.00 W/m2
03:40 15.4 °C 13.4 °C 1017.5 hPa Calm     88% 0.0 mm 0.00 W/m2
03:45 15.4 °C 13.4 °C 1017.5 hPa Calm     88% 0.0 mm 0.00 W/m2
03:50 15.3 °C 13.3 °C 1017.5 hPa Calm     88% 0.0 mm 0.00 W/m2
03:55 15.2 °C 13.2 °C 1017.5 hPa Calm     88% 0.0 mm 0.00 W/m2
04:00 15.1 °C 13.1 °C 1017.5 hPa Calm     88% 0.0 mm 0.00 W/m2
04:05 15.3 °C 13.5 °C 1017.5 hPa Calm     89% 0.0 mm 0.00 W/m2
04:10 15.4 °C 13.6 °C 1017.5 hPa Calm     89% 0.0 mm 0.00 W/m2
04:15 15.5 °C 13.7 °C 1017.5 hPa Calm     89% 0.0 mm 0.00 W/m2
04:20 15.6 °C 13.8 °C 1017.5 hPa Calm     89% 0.0 mm 0.00 W/m2
04:25 15.7 °C 13.9 °C 1017.5 hPa Calm     89% 0.0 mm 0.00 W/m2
04:30 15.7 °C 13.7 °C 1017.2 hPa Calm     88% 0.0 mm 0.00 W/m2
04:35 15.6 °C 13.6 °C 1017.2 hPa Calm     88% 0.0 mm 0.00 W/m2
04:40 15.6 °C 13.6 °C 1017.2 hPa Calm     88% 0.0 mm 0.00 W/m2
04:45 15.6 °C 13.6 °C 1017.2 hPa Calm     88% 0.0 mm 0.00 W/m2
04:50 15.6 °C 13.6 °C 1017.2 hPa Calm     88% 0.0 mm 0.00 W/m2
04:55 15.6 °C 13.6 °C 1017.2 hPa Calm     88% 0.0 mm 0.00 W/m2
05:00 15.6 °C 13.6 °C 1017.2 hPa Calm   1.6 km/h 88% 0.0 mm 0.00 W/m2
05:05 15.6 °C 13.6 °C 1017.2 hPa Calm     88% 0.0 mm 0.00 W/m2
05:10 15.6 °C 13.6 °C 1017.2 hPa Calm   1.6 km/h 88% 0.0 mm 0.00 W/m2
05:15 15.6 °C 13.6 °C 1017.2 hPa Calm     88% 0.0 mm 0.00 W/m2
05:20 15.5 °C 13.5 °C 1017.2 hPa Calm     88% 0.0 mm 0.00 W/m2
05:25 15.4 °C 13.4 °C 1017.2 hPa Calm     88% 0.0 mm 0.00 W/m2
05:30 15.4 °C 13.4 °C 1017.2 hPa Calm     88% 0.0 mm 0.00 W/m2
05:35 15.3 °C 13.3 °C 1017.2 hPa Calm     88% 0.0 mm 0.00 W/m2
05:40 15.3 °C 13.3 °C 1017.2 hPa Calm     88% 0.0 mm 0.00 W/m2
05:45 15.2 °C 13.2 °C 1017.2 hPa Calm     88% 0.0 mm 0.00 W/m2
05:50 15.1 °C 13.1 °C 1017.2 hPa Calm     88% 0.0 mm 0.00 W/m2
05:55 15.1 °C 13.1 °C 1017.2 hPa Calm     88% 0.0 mm 0.00 W/m2
06:00 15.0 °C 13.2 °C 1017.2 hPa Calm     89% 0.0 mm 5.00 W/m2
06:05 15.0 °C 13.2 °C 1017.2 hPa Calm     89% 0.0 mm 7.00 W/m2
06:10 15.0 °C 13.2 °C 1017.2 hPa Calm     89% 0.0 mm 11.00 W/m2
06:15 15.0 °C 13.2 °C 1017.2 hPa Calm     89% 0.0 mm 14.00 W/m2
06:20 15.0 °C 13.2 °C 1017.2 hPa Calm     89% 0.0 mm 19.00 W/m2
06:25 15.1 °C 13.5 °C 1017.2 hPa Calm     90% 0.0 mm 23.00 W/m2
06:30 15.1 °C 13.5 °C 1017.2 hPa Calm     90% 0.0 mm 26.00 W/m2
06:35 15.2 °C 13.6 °C 1017.2 hPa Calm   1.6 km/h 90% 0.0 mm 32.00 W/m2
06:40 15.3 °C 13.5 °C 1017.2 hPa Calm     89% 0.0 mm 39.00 W/m2
06:45 15.3 °C 13.5 °C 1017.2 hPa Calm   1.6 km/h 89% 0.0 mm 42.00 W/m2
06:50 15.3 °C 13.5 °C 1017.2 hPa Calm     89% 0.0 mm 47.00 W/m2
06:55 15.4 °C 13.6 °C 1017.2 hPa Calm     89% 0.0 mm 51.00 W/m2
07:00 15.4 °C 13.6 °C 1017.2 hPa Calm     89% 0.0 mm 54.00 W/m2
07:05 15.5 °C 13.7 °C 1017.2 hPa Calm     89% 0.0 mm 58.00 W/m2
07:10 15.6 °C 13.8 °C 1017.2 hPa Calm     89% 0.0 mm 56.00 W/m2
07:15 15.6 °C 13.8 °C 1017.2 hPa Calm     89% 0.0 mm 54.00 W/m2
07:20 15.7 °C 13.7 °C 1017.2 hPa Calm     88% 0.0 mm 62.00 W/m2
07:25 15.7 °C 13.7 °C 1017.2 hPa Calm     88% 0.0 mm 69.00 W/m2
07:30 15.7 °C 13.7 °C 1017.2 hPa Calm     88% 0.0 mm 77.00 W/m2
07:35 15.8 °C 13.8 °C 1017.5 hPa Calm     88% 0.0 mm 81.00 W/m2
07:40 15.8 °C 13.8 °C 1017.5 hPa Calm     88% 0.0 mm 88.00 W/m2
07:45 15.8 °C 13.6 °C 1017.5 hPa Calm     87% 0.0 mm 93.00 W/m2
07:50 15.9 °C 13.9 °C 1017.5 hPa Calm     88% 0.0 mm 98.00 W/m2
07:55 16.1 °C 14.1 °C 1017.5 hPa Calm     88% 0.0 mm 146.00 W/m2
08:00 16.2 °C 14.0 °C 1017.2 hPa Calm     87% 0.0 mm 113.00 W/m2
08:05 16.2 °C 14.0 °C 1017.2 hPa Calm     87% 0.0 mm 114.00 W/m2
08:10 16.4 °C 14.2 °C 1017.2 hPa Calm     87% 0.0 mm 120.00 W/m2
08:15 16.5 °C 14.3 °C 1017.2 hPa Calm     87% 0.0 mm 137.00 W/m2
08:20 16.8 °C 14.6 °C 1017.2 hPa Calm     87% 0.0 mm 323.00 W/m2
08:25 17.1 °C 14.9 °C 1017.2 hPa Calm   3.2 km/h 87% 0.0 mm 185.00 W/m2
08:30 17.3 °C 14.9 °C 1017.2 hPa Calm   3.2 km/h 86% 0.0 mm 139.00 W/m2
08:35 17.6 °C 15.2 °C 1017.2 hPa SW 1.4 km/h 1.6 km/h 86% 0.0 mm 139.00 W/m2
08:40 17.7 °C 15.1 °C 1017.2 hPa Calm   3.2 km/h 85% 0.0 mm 144.00 W/m2
08:45 17.9 °C 15.2 °C 1017.2 hPa SW 1.4 km/h 1.6 km/h 84% 0.0 mm 130.00 W/m2
08:50 18.0 °C 15.1 °C 1017.2 hPa Calm     83% 0.0 mm 120.00 W/m2
08:55 18.2 °C 15.3 °C 1017.2 hPa Calm     83% 0.0 mm 167.00 W/m2
09:00 18.3 °C 15.2 °C 1017.2 hPa Calm     82% 0.0 mm 128.00 W/m2
09:05 18.4 °C 15.3 °C 1017.2 hPa Calm   3.2 km/h 82% 0.0 mm 107.00 W/m2
09:10 18.6 °C 15.3 °C 1017.2 hPa Calm   3.2 km/h 81% 0.0 mm 155.00 W/m2
09:15 18.7 °C 15.4 °C 1017.2 hPa Calm     81% 0.0 mm 211.00 W/m2
09:20 19.2 °C 15.7 °C 1017.2 hPa SW 1.4 km/h 3.2 km/h 80% 0.0 mm 202.00 W/m2
09:25 19.8 °C 15.9 °C 1017.2 hPa Calm   3.2 km/h 78% 0.0 mm 183.00 W/m2
09:30 20.0 °C 15.8 °C 1017.2 hPa Calm   1.6 km/h 77% 0.0 mm 132.00 W/m2
09:35 20.4 °C 16.4 °C 1017.2 hPa Calm     78% 0.0 mm 139.00 W/m2
09:40 20.8 °C 16.4 °C 1017.2 hPa SW 1.4 km/h 1.6 km/h 76% 0.0 mm 165.00 W/m2
09:45 20.9 °C 16.3 °C 1017.2 hPa Calm   3.2 km/h 75% 0.0 mm 116.00 W/m2
09:50 21.0 °C 16.4 °C 1017.2 hPa Calm   1.6 km/h 75% 0.0 mm 167.00 W/m2
09:55 21.1 °C 16.1 °C 1017.2 hPa Calm   3.2 km/h 73% 0.0 mm 454.00 W/m2
10:00 21.2 °C 15.9 °C 1017.2 hPa SW 4.7 km/h 8.0 km/h 72% 0.0 mm 236.00 W/m2
10:05 21.1 °C 15.9 °C 1017.2 hPa SW 3.2 km/h 3.2 km/h 72% 0.0 mm 109.00 W/m2
10:10 20.8 °C 15.6 °C 1017.2 hPa SW 1.4 km/h 6.4 km/h 72% 0.0 mm 141.00 W/m2
10:15 20.7 °C 15.7 °C 1017.2 hPa Calm   8.0 km/h 73% 0.0 mm 190.00 W/m2
10:20 20.9 °C 16.1 °C 1017.2 hPa SW 1.4 km/h 4.8 km/h 74% 0.0 mm 206.00 W/m2
10:25 20.9 °C 15.7 °C 1017.2 hPa SW 1.4 km/h 3.2 km/h 72% 0.0 mm 283.00 W/m2
10:30 21.2 °C 16.2 °C 1017.2 hPa SW 1.4 km/h 8.0 km/h 73% 0.3 mm 221.00 W/m2
10:35 21.2 °C 15.7 °C 1017.2 hPa SW 1.4 km/h 4.8 km/h 71% 0.3 mm 241.00 W/m2
10:40 21.1 °C 15.9 °C 1017.2 hPa SW 1.4 km/h 9.7 km/h 72% 0.3 mm 236.00 W/m2
10:45 21.1 °C 16.1 °C 1017.2 hPa SW 1.4 km/h 3.2 km/h 73% 0.3 mm 197.00 W/m2
10:50 21.2 °C 16.2 °C 1017.2 hPa SW 3.2 km/h 6.4 km/h 73% 0.3 mm 214.00 W/m2
10:55 21.5 °C 16.5 °C 1017.2 hPa Calm   1.6 km/h 73% 0.3 mm 454.00 W/m2
11:00 21.5 °C 16.5 °C 1017.2 hPa SW 3.2 km/h 6.4 km/h 73% 0.3 mm 227.00 W/m2
11:05 21.5 °C 16.2 °C 1017.2 hPa SW 3.2 km/h 4.8 km/h 72% 0.3 mm 374.00 W/m2
11:10 22.0 °C 16.9 °C 1016.8 hPa SW 3.2 km/h 6.4 km/h 73% 0.3 mm 257.00 W/m2
11:15 22.4 °C 16.7 °C 1016.8 hPa SSW 1.4 km/h 4.8 km/h 70% 0.3 mm 297.00 W/m2
11:20 22.6 °C 16.2 °C 1016.8 hPa Calm   8.0 km/h 67% 0.3 mm 148.00 W/m2
11:25 22.6 °C 16.2 °C 1016.8 hPa Calm   4.8 km/h 67% 0.0 mm 144.00 W/m2
11:30 22.7 °C 16.7 °C 1016.8 hPa Calm   8.0 km/h 69% 0.0 mm 248.00 W/m2
11:35 22.9 °C 16.2 °C 1016.8 hPa Calm   4.8 km/h 66% 0.0 mm 179.00 W/m2
11:40 23.2 °C 16.7 °C 1016.8 hPa Calm   1.6 km/h 67% 0.0 mm 461.00 W/m2
11:45 23.2 °C 16.0 °C 1016.8 hPa South 6.4 km/h 12.9 km/h 64% 0.0 mm 540.00 W/m2
11:50 23.2 °C 15.3 °C 1016.8 hPa Calm   3.2 km/h 61% 0.0 mm 571.00 W/m2
11:55 23.3 °C 15.4 °C 1016.8 hPa Calm   3.2 km/h 61% 0.0 mm 135.00 W/m2
12:00 23.3 °C 14.8 °C 1016.8 hPa SW 1.4 km/h 4.8 km/h 59% 0.0 mm 158.00 W/m2
12:05 23.8 °C 14.8 °C 1016.5 hPa SSW 4.7 km/h 8.0 km/h 57% 0.0 mm 192.00 W/m2
12:10 24.1 °C 13.3 °C 1016.5 hPa Calm   6.4 km/h 51% 0.0 mm 186.00 W/m2
12:15 24.1 °C 12.1 °C 1016.5 hPa SW 4.7 km/h 6.4 km/h 47% 0.0 mm 267.00 W/m2
12:20 24.1 °C 12.1 °C 1016.5 hPa SSW 6.4 km/h 9.7 km/h 47% 0.0 mm 142.00 W/m2
12:25 23.9 °C 12.2 °C 1016.5 hPa Calm   11.3 km/h 48% 0.0 mm 234.00 W/m2
12:30 23.9 °C 13.4 °C 1016.5 hPa NNW 1.4 km/h 6.4 km/h 52% 0.0 mm 345.00 W/m2
12:35 23.7 °C 12.7 °C 1016.5 hPa Calm   11.3 km/h 50% 0.0 mm 174.00 W/m2
12:40 23.4 °C 12.7 °C 1016.5 hPa SSW 4.7 km/h 6.4 km/h 51% 0.0 mm 223.00 W/m2
12:45 23.2 °C 13.4 °C 1016.5 hPa WSW 3.2 km/h 11.3 km/h 54% 0.0 mm 262.00 W/m2
12:50 23.2 °C 12.5 °C 1016.5 hPa SSW 6.4 km/h 6.4 km/h 51% 0.0 mm 264.00 W/m2
12:55 23.3 °C 13.5 °C 1016.5 hPa WNW 1.4 km/h 6.4 km/h 54% 0.0 mm 221.00 W/m2
13:00 23.2 °C 12.5 °C 1016.5 hPa SW 3.2 km/h 6.4 km/h 51% 0.0 mm 216.00 W/m2
13:05 23.0 °C 12.3 °C 1016.5 hPa SW 1.4 km/h 8.0 km/h 51% 0.0 mm 209.00 W/m2
13:10 22.9 °C 12.5 °C 1016.1 hPa SW 1.4 km/h 8.0 km/h 52% 0.0 mm 174.00 W/m2
13:15 22.8 °C 12.4 °C 1016.1 hPa SSW 1.4 km/h 9.7 km/h 52% 0.0 mm 156.00 W/m2
13:20 22.8 °C 13.6 °C 1016.1 hPa SW 1.4 km/h 1.6 km/h 56% 0.0 mm 176.00 W/m2
13:25 22.9 °C 14.2 °C 1016.1 hPa Calm   4.8 km/h 58% 0.0 mm 214.00 W/m2
13:30 22.9 °C 13.9 °C 1016.1 hPa Calm   8.0 km/h 57% 0.0 mm 213.00 W/m2
13:35 23.0 °C 14.6 °C 1016.1 hPa Calm   1.6 km/h 59% 0.0 mm 193.00 W/m2
13:40 23.1 °C 14.4 °C 1016.1 hPa SW 9.7 km/h 9.7 km/h 58% 0.0 mm 172.00 W/m2
13:45 23.1 °C 14.6 °C 1015.8 hPa Calm   3.2 km/h 59% 0.0 mm 156.00 W/m2
13:50 23.1 °C 14.6 °C 1015.8 hPa SSW 1.4 km/h 1.6 km/h 59% 0.0 mm 171.00 W/m2
13:55 23.3 °C 14.6 °C 1015.8 hPa SSW 1.4 km/h 3.2 km/h 58% 0.0 mm 206.00 W/m2
14:00 23.6 °C 14.9 °C 1015.8 hPa NE 1.4 km/h 1.6 km/h 58% 0.0 mm 221.00 W/m2
14:05 24.0 °C 14.7 °C 1015.8 hPa Calm   3.2 km/h 56% 0.0 mm 251.00 W/m2
14:10 25.1 °C 13.9 °C 1015.8 hPa SSW 4.7 km/h 6.4 km/h 50% 0.0 mm 221.00 W/m2
14:15 25.0 °C 14.5 °C 1015.8 hPa Calm   1.6 km/h 52% 0.0 mm 202.00 W/m2
14:20 24.4 °C 13.0 °C 1015.8 hPa SW 3.2 km/h 6.4 km/h 49% 0.0 mm 216.00 W/m2
14:25 24.2 °C 13.7 °C 1016.1 hPa SW 1.4 km/h 4.8 km/h 52% 0.0 mm 272.00 W/m2
14:30 24.1 °C 13.0 °C 1015.8 hPa SSE 6.4 km/h 9.7 km/h 50% 0.0 mm 237.00 W/m2
14:35 24.0 °C 13.2 °C 1015.8 hPa SSW 3.2 km/h 4.8 km/h 51% 0.0 mm 227.00 W/m2
14:40 24.0 °C 14.1 °C 1015.8 hPa SW 1.4 km/h 4.8 km/h 54% 0.0 mm 230.00 W/m2
14:45 24.2 °C 14.0 °C 1015.8 hPa SW 1.4 km/h 4.8 km/h 53% 0.0 mm 299.00 W/m2
14:50 24.7 °C 13.3 °C 1015.8 hPa SSW 6.4 km/h 9.7 km/h 49% 0.0 mm 536.00 W/m2
14:55 25.6 °C 13.1 °C 1015.8 hPa Calm   11.3 km/h 46% 0.0 mm 536.00 W/m2
Westerhope, Newcastle upon Tyne, UK
Compliments of Weather Underground - 4 mb